Time;durP1;ratioP1;P1;durP2;ratioP2;P2;SDS_P1;SDS_P2;PMS_P1;PMS_P2;Temp;Humidity;BMP_temperature;BMP_pressure;BME280_temperature;BME280_humidity;BME280_pressure;Samples;Min_cycle;Max_cycle;Signal;HPM_P1;HPM_P2
2023/09/23 00:00:23;;;;;;;11.73;10.27;;;;;;;11.77;100.00;100585.47;5052367;28;20048;-63
2023/09/23 00:02:51;;;;;;;17.55;16.20;;;;;;;11.72;100.00;100599.09;5064111;28;20016;-63
2023/09/23 00:05:17;;;;;;;18.58;17.13;;;;;;;11.71;100.00;100600.06;5052563;28;20028;-63
2023/09/23 00:07:43;;;;;;;12.05;9.80;;;;;;;11.86;100.00;100607.97;5052193;28;20074;-63
2023/09/23 00:10:12;;;;;;;18.38;16.88;;;;;;;11.62;100.00;100605.19;5071037;28;20111;-63
2023/09/23 00:12:40;;;;;;;12.05;9.85;;;;;;;11.82;100.00;100615.28;5052412;28;20024;-63
2023/09/23 00:15:06;;;;;;;19.20;17.77;;;;;;;11.69;100.00;100615.31;5070068;28;20027;-63
2023/09/23 00:17:32;;;;;;;18.35;16.95;;;;;;;11.69;100.00;100614.47;5043339;28;20028;-63
2023/09/23 00:19:58;;;;;;;18.77;17.38;;;;;;;11.62;100.00;100611.41;5070441;28;20089;-63
2023/09/23 00:22:26;;;;;;;19.40;17.90;;;;;;;11.66;100.00;100607.53;5068404;28;20459;-62
2023/09/23 00:24:54;;;;;;;18.55;16.48;;;;;;;11.56;100.00;100603.84;5070004;28;20069;-62
2023/09/23 00:27:19;;;;;;;18.02;16.40;;;;;;;11.64;100.00;100612.13;5066219;28;20552;-62
2023/09/23 00:29:45;;;;;;;17.58;16.02;;;;;;;11.54;100.00;100609.25;5054711;28;20104;-62
2023/09/23 00:32:12;;;;;;;16.92;15.43;;;;;;;11.56;100.00;100615.34;5053993;28;20064;-62
2023/09/23 00:34:38;;;;;;;17.23;15.75;;;;;;;11.52;100.00;100620.97;5052510;28;20136;-63
2023/09/23 00:37:04;;;;;;;17.08;15.38;;;;;;;11.52;100.00;100623.66;5067012;28;20123;-63
2023/09/23 00:39:30;;;;;;;10.30;8.10;;;;;;;11.63;100.00;100615.75;5045413;28;20025;-63
2023/09/23 00:41:55;;;;;;;13.02;8.73;;;;;;;11.71;100.00;100631.19;5053491;28;20589;-63
2023/09/23 00:44:20;;;;;;;16.17;14.60;;;;;;;11.53;100.00;100623.56;5054026;28;20060;-63
2023/09/23 00:46:48;;;;;;;16.65;15.10;;;;;;;11.53;100.00;100643.97;5046029;28;20423;-63
2023/09/23 00:49:16;;;;;;;17.17;15.57;;;;;;;11.52;100.00;100636.97;5043246;28;20435;-63
2023/09/23 00:51:42;;;;;;;13.38;8.07;;;;;;;11.64;100.00;100633.44;5059016;28;20021;-63
2023/09/23 00:54:07;;;;;;;15.23;13.82;;;;;;;11.48;100.00;100630.16;5059994;28;20032;-63
2023/09/23 00:56:36;;;;;;;11.88;7.68;;;;;;;11.55;100.00;100629.59;5047313;28;20067;-63
2023/09/23 00:59:06;;;;;;;8.00;5.25;;;;;;;11.67;100.00;100632.34;5029844;28;20028;-63
2023/09/23 01:01:32;;;;;;;14.63;13.10;;;;;;;11.40;100.00;100630.69;5063825;28;20540;-63
2023/09/23 01:03:57;;;;;;;14.75;13.27;;;;;;;11.42;100.00;100638.59;5038858;28;20124;-63
2023/09/23 01:06:26;;;;;;;10.88;7.82;;;;;;;11.54;100.00;100635.91;5048885;28;20024;-63
2023/09/23 01:08:54;;;;;;;13.07;11.88;;;;;;;11.39;100.00;100638.78;5042381;28;20472;-63
2023/09/23 01:11:23;;;;;;;14.70;12.43;;;;;;;11.36;100.00;100642.53;5068653;28;20029;-63
2023/09/23 01:13:51;;;;;;;15.37;10.90;;;;;;;11.37;100.00;100647.72;5069667;28;20058;-63
2023/09/23 01:16:17;;;;;;;13.68;12.20;;;;;;;11.41;100.00;100650.16;5068513;28;20043;-63
2023/09/23 01:18:45;;;;;;;12.98;11.50;;;;;;;11.32;100.00;100641.88;5052887;28;20119;-63
2023/09/23 01:21:11;;;;;;;12.27;11.18;;;;;;;11.35;100.00;100655.00;5035816;28;20061;-63
2023/09/23 01:23:38;;;;;;;12.85;11.55;;;;;;;11.39;100.00;100663.63;5046452;28;20021;-63
2023/09/23 01:26:07;;;;;;;13.93;11.23;;;;;;;11.42;100.00;100660.72;5069477;28;20032;-63
2023/09/23 01:28:33;;;;;;;11.85;10.68;;;;;;;11.32;100.00;100668.53;5052557;28;20465;-63
2023/09/23 01:31:00;;;;;;;7.20;4.28;;;;;;;11.50;100.00;100660.19;5040516;28;20016;-63
2023/09/23 01:33:27;;;;;;;10.88;9.77;;;;;;;11.27;100.00;100653.81;5056777;28;20079;-63
2023/09/23 01:35:55;;;;;;;4.28;3.75;;;;;;;11.47;100.00;100663.94;5041612;28;20487;-63
2023/09/23 01:38:21;;;;;;;14.02;5.95;;;;;;;11.49;100.00;100664.66;5046148;28;20376;-63
2023/09/23 01:40:47;;;;;;;15.13;10.57;;;;;;;11.34;100.00;100668.41;5051157;28;20029;-63
2023/09/23 01:43:12;;;;;;;8.05;5.35;;;;;;;11.50;100.00;100668.16;5053650;28;20111;-62
2023/09/23 01:45:38;;;;;;;6.35;5.40;;;;;;;11.43;100.00;100673.06;5055839;28;21246;-63
2023/09/23 01:48:07;;;;;;;14.05;9.20;;;;;;;11.31;100.00;100672.13;5050910;28;20036;-63
2023/09/23 01:50:34;;;;;;;11.83;8.83;;;;;;;11.45;100.00;100689.81;5050622;28;20021;-63
2023/09/23 01:53:00;;;;;;;11.13;9.35;;;;;;;11.38;100.00;100677.88;5032126;28;20056;-63
2023/09/23 01:55:26;;;;;;;7.57;4.85;;;;;;;11.52;100.00;100674.25;5052472;28;20653;-63
2023/09/23 01:57:52;;;;;;;9.07;4.88;;;;;;;11.48;100.00;100670.09;5038643;28;20111;-63
2023/09/23 02:00:18;;;;;;;12.20;8.43;;;;;;;11.34;100.00;100687.03;5036851;28;20105;-63
2023/09/23 02:02:44;;;;;;;7.93;4.35;;;;;;;11.43;100.00;100689.06;5030383;28;20495;-63
2023/09/23 02:05:09;;;;;;;11.90;8.77;;;;;;;11.23;100.00;100673.59;5035796;28;20056;-63
2023/09/23 02:07:35;;;;;;;8.68;4.40;;;;;;;11.39;100.00;100684.91;5056956;28;20052;-63
2023/09/23 02:10:00;;;;;;;5.45;2.60;;;;;;;11.36;100.00;100677.97;5059888;28;20059;-63
2023/09/23 02:12:26;;;;;;;10.50;7.68;;;;;;;11.21;100.00;100686.19;5040326;28;20017;-63
2023/09/23 02:14:53;;;;;;;16.15;8.55;;;;;;;11.20;100.00;100692.44;5053442;28;20025;-62
2023/09/23 02:17:21;;;;;;;13.63;7.38;;;;;;;11.19;100.00;100696.94;5053548;28;20478;-63
2023/09/23 02:19:47;;;;;;;10.15;7.20;;;;;;;11.19;100.00;100698.75;5051786;28;20025;-63
2023/09/23 02:22:13;;;;;;;8.32;6.78;;;;;;;11.13;100.00;100700.84;5067913;28;20021;-63
2023/09/23 02:24:40;;;;;;;12.20;7.40;;;;;;;11.18;100.00;100702.34;5038394;28;20384;-63
2023/09/23 02:27:06;;;;;;;6.82;4.72;;;;;;;11.23;100.00;100706.41;5037146;28;20022;-63
2023/09/23 02:29:32;;;;;;;8.35;6.72;;;;;;;11.13;100.00;100705.31;5062570;28;20383;-63
2023/09/23 02:31:57;;;;;;;11.80;6.55;;;;;;;11.11;100.00;100705.41;5040835;28;20447;-63
2023/09/23 02:34:25;;;;;;;6.97;3.85;;;;;;;11.22;100.00;100714.50;5049061;28;20074;-63
2023/09/23 02:36:53;;;;;;;8.82;7.18;;;;;;;11.11;100.00;100716.06;5047419;28;20049;-63
2023/09/23 02:39:21;;;;;;;12.05;7.20;;;;;;;11.08;100.00;100720.75;5031762;28;20380;-63
2023/09/23 02:41:49;;;;;;;10.38;6.90;;;;;;;11.15;100.00;100727.38;5056362;28;20031;-63
2023/09/23 02:44:19;;;;;;;9.75;6.70;;;;;;;11.04;100.00;100729.91;5050775;28;20369;-63
2023/09/23 02:46:48;;;;;;;9.25;6.45;;;;;;;10.99;100.00;100734.69;5045143;28;20028;-64
2023/09/23 02:49:14;;;;;;;12.90;6.90;;;;;;;11.10;100.00;100740.97;5061021;28;20025;-63
2023/09/23 02:51:41;;;;;;;8.73;3.63;;;;;;;11.15;100.00;100724.72;5058149;28;20024;-63
2023/09/23 02:54:08;;;;;;;12.60;6.20;;;;;;;11.06;100.00;100744.81;5038180;28;20025;-63
2023/09/23 02:56:34;;;;;;;12.25;6.22;;;;;;;10.97;100.00;100715.28;5078854;28;20407;-63
2023/09/23 02:59:13;;;;;;;8.82;5.82;;;;;;;11.02;100.00;100737.13;5041984;28;20021;-63
2023/09/23 03:01:51;;;;;;;7.75;4.40;;;;;;;11.13;100.00;100746.09;5048875;28;20395;-63
2023/09/23 03:04:16;;;;;;;6.18;3.75;;;;;;;11.16;100.00;100752.19;5055409;28;20107;-63
2023/09/23 03:06:50;;;;;;;11.50;4.45;;;;;;;11.12;100.00;100741.75;5058084;28;20430;-63
2023/09/23 03:09:23;;;;;;;12.13;4.32;;;;;;;11.13;100.00;100748.75;5040566;28;20025;-63
2023/09/23 03:11:53;;;;;;;13.57;8.35;;;;;;;10.96;100.00;100750.84;5057125;28;20016;-63
2023/09/23 03:14:25;;;;;;;10.30;9.00;;;;;;;11.02;100.00;100750.44;5040234;28;20044;-63
2023/09/23 03:16:53;;;;;;;9.63;8.25;;;;;;;10.90;100.00;100747.63;5054321;28;20045;-62
2023/09/23 03:19:24;;;;;;;10.05;8.80;;;;;;;10.92;100.00;100747.53;5065102;28;20391;-63
2023/09/23 03:21:56;;;;;;;7.50;4.13;;;;;;;11.04;100.00;100754.72;5055649;28;20039;-62
2023/09/23 03:24:25;;;;;;;8.02;3.63;;;;;;;10.84;100.00;100726.75;5061830;28;20016;-63
2023/09/23 03:26:53;;;;;;;9.70;8.27;;;;;;;10.94;100.00;100758.91;5058868;28;20024;-62
2023/09/23 03:29:19;;;;;;;6.25;3.58;;;;;;;11.00;100.00;100761.19;5060398;28;20013;-62
2023/09/23 03:31:44;;;;;;;7.20;4.65;;;;;;;11.00;100.00;100769.19;5038094;28;20031;-62
2023/09/23 03:34:13;;;;;;;7.70;3.67;;;;;;;10.99;100.00;100762.13;5038335;28;20052;-63
2023/09/23 03:36:39;;;;;;;13.23;7.90;;;;;;;10.98;100.00;100760.44;5055913;28;20025;-62
2023/09/23 03:39:05;;;;;;;11.32;8.10;;;;;;;10.85;100.00;100765.72;5040903;28;20077;-62
2023/09/23 03:41:33;;;;;;;13.23;8.38;;;;;;;10.82;100.00;100762.38;5060640;28;20025;-62
2023/09/23 03:43:58;;;;;;;8.75;7.95;;;;;;;10.82;100.00;100768.56;5057628;28;20403;-62
2023/09/23 03:46:24;;;;;;;8.68;7.80;;;;;;;10.94;100.00;100776.69;5063289;28;20024;-63
2023/09/23 03:48:50;;;;;;;10.45;8.32;;;;;;;10.73;100.00;100763.84;5067755;28;20090;-62
2023/09/23 03:51:17;;;;;;;11.65;8.43;;;;;;;10.70;100.00;100766.69;5048777;28;20025;-62
2023/09/23 03:53:44;;;;;;;10.60;7.40;;;;;;;10.70;100.00;100769.38;5066778;28;20083;-63
2023/09/23 03:56:10;;;;;;;11.10;7.75;;;;;;;10.76;100.00;100770.78;5030657;28;20402;-62
2023/09/23 03:58:38;;;;;;;13.70;8.25;;;;;;;10.75;100.00;100787.69;5062703;28;20028;-62
2023/09/23 04:01:11;;;;;;;15.73;8.35;;;;;;;10.77;100.00;100781.31;5059121;28;20029;-62
2023/09/23 04:03:36;;;;;;;4.60;3.72;;;;;;;10.84;100.00;100773.78;5072197;28;20040;-62
2023/09/23 04:06:02;;;;;;;13.38;8.52;;;;;;;10.88;100.00;100776.16;5070854;28;20517;-62
2023/09/23 04:08:27;;;;;;;11.18;7.78;;;;;;;10.86;100.00;100783.38;5053605;28;20028;-62
2023/09/23 04:10:53;;;;;;;13.30;8.27;;;;;;;10.82;100.00;100789.84;5067673;28;20056;-62
2023/09/23 04:13:19;;;;;;;11.48;8.25;;;;;;;10.81;100.00;100784.63;5056090;28;20024;-62
2023/09/23 04:15:44;;;;;;;11.10;8.75;;;;;;;10.77;100.00;100786.66;5054704;28;20498;-62
2023/09/23 04:18:10;;;;;;;6.10;3.92;;;;;;;10.92;100.00;100795.44;5062182;28;20644;-62
2023/09/23 04:20:36;;;;;;;12.63;8.63;;;;;;;10.83;100.00;100796.88;5058053;28;20411;-63
2023/09/23 04:23:02;;;;;;;12.32;8.93;;;;;;;10.77;100.00;100801.75;5036933;28;20021;-62
2023/09/23 04:25:28;;;;;;;7.43;3.85;;;;;;;10.85;100.00;100805.63;5065461;28;20043;-62
2023/09/23 04:27:54;;;;;;;7.25;3.78;;;;;;;10.82;100.00;100807.63;5048681;28;20530;-62
2023/09/23 04:30:20;;;;;;;11.40;4.40;;;;;;;10.84;100.00;100814.53;5032496;28;20059;-62
2023/09/23 04:32:46;;;;;;;5.28;4.30;;;;;;;10.87;100.00;100826.81;5054693;28;20056;-62
2023/09/23 04:35:18;;;;;;;11.55;9.02;;;;;;;10.74;100.00;100815.25;5051194;28;20035;-62
2023/09/23 04:37:44;;;;;;;9.85;8.77;;;;;;;10.65;100.00;100814.03;5038592;28;20075;-62
2023/09/23 04:40:11;;;;;;;8.15;4.13;;;;;;;10.77;100.00;100831.03;5053599;28;20012;-62
2023/09/23 04:42:41;;;;;;;10.02;8.18;;;;;;;10.65;100.00;100830.84;5063379;28;20027;-62
2023/09/23 04:45:09;;;;;;;11.65;9.32;;;;;;;10.63;100.00;100838.06;5059519;28;20095;-62
2023/09/23 04:47:35;;;;;;;10.50;8.82;;;;;;;10.67;100.00;100833.41;5054575;28;20071;-62
2023/09/23 04:50:01;;;;;;;5.30;4.10;;;;;;;10.71;100.00;100842.91;5034151;28;20048;-62
2023/09/23 04:52:29;;;;;;;11.35;7.95;;;;;;;10.58;100.00;100836.66;5050277;28;20016;-62
2023/09/23 04:54:55;;;;;;;10.13;8.38;;;;;;;10.59;100.00;100831.25;5038974;28;20519;-62
2023/09/23 04:57:21;;;;;;;13.88;4.80;;;;;;;10.72;100.00;100841.94;5064535;28;20028;-62
2023/09/23 04:59:47;;;;;;;7.95;4.65;;;;;;;10.72;100.00;100844.59;5060044;28;20040;-63
2023/09/23 05:02:13;;;;;;;9.23;8.15;;;;;;;10.59;100.00;100848.97;5057624;28;20032;-62
2023/09/23 05:04:39;;;;;;;7.38;4.10;;;;;;;10.72;100.00;100846.41;5019776;28;20021;-62
2023/09/23 05:07:04;;;;;;;6.10;4.10;;;;;;;10.68;100.00;100857.25;5053106;28;20504;-62
2023/09/23 05:09:30;;;;;;;11.93;8.77;;;;;;;10.59;100.00;100862.28;5039091;28;20024;-62
2023/09/23 05:11:56;;;;;;;5.80;4.30;;;;;;;10.63;100.00;100867.31;5043451;28;20025;-62
2023/09/23 05:14:21;;;;;;;10.55;3.75;;;;;;;10.67;100.00;100871.47;5057971;28;20077;-62
2023/09/23 05:16:49;;;;;;;6.40;4.20;;;;;;;10.65;100.00;100867.25;5069780;28;20467;-62
2023/09/23 05:19:19;;;;;;;9.52;4.28;;;;;;;10.64;100.00;100877.00;5067382;28;20027;-62
2023/09/23 05:21:46;;;;;;;11.32;8.73;;;;;;;10.47;100.00;100879.88;5056795;28;20021;-62
2023/09/23 05:24:12;;;;;;;9.77;4.30;;;;;;;10.58;100.00;100876.53;5042351;28;20383;-63
2023/09/23 05:26:37;;;;;;;9.48;3.75;;;;;;;10.59;100.00;100903.06;5063365;28;20028;-62
2023/09/23 05:29:05;;;;;;;13.23;8.80;;;;;;;10.44;100.00;100898.66;5058168;28;20051;-63
2023/09/23 05:31:31;;;;;;;10.50;8.18;;;;;;;10.44;100.00;100907.53;5055344;28;20072;-63
2023/09/23 05:33:56;;;;;;;11.10;9.10;;;;;;;10.36;100.00;100900.97;5052044;28;20107;-62
2023/09/23 05:36:22;;;;;;;9.35;8.40;;;;;;;10.37;100.00;100916.81;5061833;28;20125;-62
2023/09/23 05:38:47;;;;;;;11.70;8.52;;;;;;;10.37;100.00;100916.81;5041077;28;20031;-62
2023/09/23 05:41:13;;;;;;;6.85;4.60;;;;;;;10.51;100.00;100923.09;5052242;28;20472;-63
2023/09/23 05:43:39;;;;;;;12.55;8.85;;;;;;;10.39;100.00;100927.34;5069774;28;20100;-63
2023/09/23 05:46:09;;;;;;;9.25;8.35;;;;;;;10.42;100.00;100935.16;5052313;28;20503;-62
2023/09/23 05:48:37;;;;;;;4.85;3.63;;;;;;;10.50;100.00;100938.19;5058691;28;20020;-63
2023/09/23 05:51:06;;;;;;;11.10;4.90;;;;;;;10.53;100.00;100940.66;5070627;28;20017;-62
2023/09/23 05:53:34;;;;;;;10.15;4.88;;;;;;;10.58;100.00;100943.03;5064280;28;20021;-63
2023/09/23 05:56:02;;;;;;;11.77;9.37;;;;;;;10.54;100.00;100944.19;5062485;28;20078;-62
2023/09/23 05:58:28;;;;;;;6.68;4.72;;;;;;;10.55;100.00;100944.06;5059682;28;20025;-62
2023/09/23 06:00:55;;;;;;;13.98;8.80;;;;;;;10.45;100.00;100946.44;5051729;28;20017;-62
2023/09/23 06:03:20;;;;;;;12.23;9.63;;;;;;;10.39;100.00;100944.16;5054568;28;20073;-62
2023/09/23 06:05:46;;;;;;;11.43;9.93;;;;;;;10.55;100.00;100960.03;5039391;28;20103;-62
2023/09/23 06:08:12;;;;;;;10.93;8.35;;;;;;;10.51;100.00;100961.16;5063358;28;20040;-62
2023/09/23 06:10:39;;;;;;;15.70;9.60;;;;;;;10.49;100.00;100967.53;5065699;28;20025;-62
2023/09/23 06:13:07;;;;;;;13.65;9.20;;;;;;;10.57;100.00;100973.25;5036696;28;20021;-63
2023/09/23 06:15:33;;;;;;;17.83;10.00;;;;;;;10.51;100.00;100978.94;5062234;28;20021;-62
2023/09/23 06:17:59;;;;;;;7.72;6.50;;;;;;;10.65;100.00;100989.59;5047439;28;20023;-62
2023/09/23 06:20:25;;;;;;;10.77;9.68;;;;;;;10.59;100.00;101000.56;5052511;28;20059;-62
2023/09/23 06:22:50;;;;;;;16.55;9.50;;;;;;;10.60;100.00;100986.34;5033136;28;20557;-63
2023/09/23 06:25:16;;;;;;;13.65;10.05;;;;;;;10.69;100.00;101007.91;5052895;28;20446;-62
2023/09/23 06:27:42;;;;;;;12.68;9.07;;;;;;;10.65;100.00;101005.56;5048843;28;20040;-62
2023/09/23 06:30:08;;;;;;;8.23;4.32;;;;;;;10.74;100.00;101002.31;5053407;28;20075;-63
2023/09/23 06:32:34;;;;;;;11.10;8.90;;;;;;;10.78;100.00;101003.00;5053415;28;20503;-63
2023/09/23 06:34:59;;;;;;;6.63;4.72;;;;;;;10.89;100.00;101016.50;5040304;28;20029;-62
2023/09/23 06:37:25;;;;;;;15.35;10.02;;;;;;;10.81;100.00;101016.94;5055061;28;20112;-63
2023/09/23 06:39:50;;;;;;;11.43;4.65;;;;;;;10.96;100.00;101024.94;5054393;28;20043;-62
2023/09/23 06:42:16;;;;;;;11.07;8.90;;;;;;;10.86;100.00;101019.34;5056827;28;20111;-63
2023/09/23 06:44:42;;;;;;;21.25;4.45;;;;;;;11.05;100.00;101027.88;5065442;28;20484;-62
2023/09/23 06:47:08;;;;;;;9.43;4.60;;;;;;;10.99;100.00;101032.75;5039201;28;20079;-62
2023/09/23 06:49:34;;;;;;;6.47;5.03;;;;;;;10.99;100.00;101035.41;5058825;28;20028;-62
2023/09/23 06:51:59;;;;;;;9.65;5.03;;;;;;;10.97;100.00;101029.31;5058794;28;20442;-63
2023/09/23 06:54:25;;;;;;;5.38;4.88;;;;;;;11.01;100.00;101034.34;5054773;28;20445;-62
2023/09/23 06:56:54;;;;;;;7.57;4.63;;;;;;;11.12;100.00;101047.84;5044913;28;20084;-63
2023/09/23 06:59:20;;;;;;;12.40;9.38;;;;;;;11.10;100.00;101046.25;5059732;28;20503;-63
2023/09/23 07:01:45;;;;;;;8.15;4.53;;;;;;;11.13;100.00;101052.22;5056047;28;20028;-63
2023/09/23 07:04:10;;;;;;;5.60;4.25;;;;;;;11.12;100.00;101039.03;5041437;28;20021;-63
2023/09/23 07:06:36;;;;;;;12.80;9.65;;;;;;;11.18;100.00;101051.06;5055869;28;20032;-63
2023/09/23 07:09:04;;;;;;;7.45;4.70;;;;;;;11.26;100.00;101059.44;5058397;28;20082;-62
2023/09/23 07:11:29;;;;;;;6.93;5.05;;;;;;;11.30;100.00;101061.81;5066763;28;20032;-62
2023/09/23 07:13:58;;;;;;;11.05;9.98;;;;;;;11.27;100.00;101062.03;5051015;28;20021;-62
2023/09/23 07:16:26;;;;;;;12.73;10.10;;;;;;;11.27;100.00;101063.84;5067201;28;20020;-63
2023/09/23 07:18:54;;;;;;;11.23;10.00;;;;;;;11.20;100.00;101054.50;5033839;28;20366;-63
2023/09/23 07:21:24;;;;;;;11.43;9.95;;;;;;;11.19;100.00;101058.13;5036956;28;20495;-63
2023/09/23 07:23:51;;;;;;;12.40;5.22;;;;;;;11.41;100.00;101069.13;5064573;28;20024;-63
2023/09/23 07:26:21;;;;;;;8.32;5.72;;;;;;;11.42;100.00;101081.50;5066002;28;20388;-63
2023/09/23 07:28:47;;;;;;;13.07;9.48;;;;;;;11.36;100.00;101079.22;5042598;28;20077;-62
2023/09/23 07:31:12;;;;;;;5.38;4.88;;;;;;;11.51;100.00;101088.06;5079317;28;20029;-63
2023/09/23 07:33:38;;;;;;;8.10;5.35;;;;;;;11.52;100.00;101084.44;5069660;28;20108;-63
2023/09/23 07:36:13;;;;;;;7.63;5.45;;;;;;;11.66;100.00;101097.75;5054690;28;20032;-63
2023/09/23 07:38:39;;;;;;;5.80;4.88;;;;;;;11.67;100.00;101107.44;5056635;28;20037;-63
2023/09/23 07:41:06;;;;;;;11.27;10.13;;;;;;;11.64;100.00;101112.09;5056505;28;20033;-63
2023/09/23 07:43:34;;;;;;;10.50;8.93;;;;;;;11.68;100.00;101109.16;5053660;28;20495;-63
2023/09/23 07:45:59;;;;;;;11.20;9.95;;;;;;;11.76;100.00;101117.50;5064672;28;20033;-63
2023/09/23 07:48:25;;;;;;;12.35;10.30;;;;;;;11.75;100.00;101105.16;5058138;28;20357;-62
2023/09/23 07:50:54;;;;;;;12.82;9.30;;;;;;;11.94;100.00;101125.31;5046841;28;20433;-62
2023/09/23 07:53:20;;;;;;;14.57;9.55;;;;;;;12.00;100.00;101116.91;5070348;28;20028;-63
2023/09/23 07:55:46;;;;;;;9.18;5.45;;;;;;;12.07;100.00;101122.72;5061912;28;20411;-63
2023/09/23 07:58:11;;;;;;;8.52;6.72;;;;;;;12.14;100.00;101127.53;5054332;28;20032;-62
2023/09/23 08:00:36;;;;;;;13.90;8.93;;;;;;;12.24;100.00;101117.16;5058260;28;20498;-63
2023/09/23 08:03:02;;;;;;;10.35;9.07;;;;;;;12.28;100.00;101130.16;5062227;28;20044;-62
2023/09/23 08:05:29;;;;;;;7.75;4.47;;;;;;;12.46;100.00;101137.91;5055959;28;20506;-62
2023/09/23 08:07:55;;;;;;;9.68;8.02;;;;;;;12.36;100.00;101137.69;5059032;28;20032;-63
2023/09/23 08:10:20;;;;;;;10.68;8.65;;;;;;;12.55;100.00;101149.78;5070649;28;20028;-63
2023/09/23 08:12:46;;;;;;;11.73;8.52;;;;;;;12.48;100.00;101160.03;5059292;28;20028;-63
2023/09/23 08:15:11;;;;;;;12.43;9.40;;;;;;;12.53;100.00;101157.03;5071331;28;20028;-63
2023/09/23 08:17:40;;;;;;;12.57;9.05;;;;;;;12.66;100.00;101157.94;5037909;28;20902;-63
2023/09/23 08:20:17;;;;;;;16.63;8.65;;;;;;;12.78;100.00;101162.44;5070446;28;20032;-63
2023/09/23 08:22:46;;;;;;;11.77;8.55;;;;;;;12.97;100.00;101164.75;5060181;28;20110;-63
2023/09/23 08:25:13;;;;;;;13.35;8.13;;;;;;;13.19;100.00;101178.31;5051625;28;20503;-63
2023/09/23 08:27:40;;;;;;;15.38;7.88;;;;;;;13.30;100.00;101174.09;5050971;28;20426;-63
2023/09/23 08:30:10;;;;;;;14.60;8.43;;;;;;;13.35;100.00;101179.97;5053622;28;20063;-62
2023/09/23 08:32:36;;;;;;;10.80;4.20;;;;;;;13.51;100.00;101175.28;5065337;28;20017;-62
2023/09/23 08:35:02;;;;;;;6.80;5.20;;;;;;;13.56;100.00;101186.50;5070046;28;20024;-63
2023/09/23 08:37:28;;;;;;;10.70;7.68;;;;;;;13.55;100.00;101186.59;5048561;28;20027;-62
2023/09/23 08:39:55;;;;;;;10.43;6.75;;;;;;;13.62;100.00;101187.88;5070990;28;20040;-63
2023/09/23 08:42:24;;;;;;;12.10;6.60;;;;;;;13.70;100.00;101187.31;5067213;28;20103;-63
2023/09/23 08:44:50;;;;;;;10.48;6.68;;;;;;;13.83;100.00;101196.19;5050755;28;20162;-63
2023/09/23 08:47:18;;;;;;;9.32;6.75;;;;;;;13.89;100.00;101203.78;5057335;28;20407;-63
2023/09/23 08:49:49;;;;;;;18.77;6.80;;;;;;;14.03;100.00;101211.69;5036211;28;20020;-63
2023/09/23 08:52:18;;;;;;;10.52;6.28;;;;;;;14.04;100.00;101220.56;5045350;28;20025;-63
2023/09/23 08:54:50;;;;;;;10.50;6.28;;;;;;;14.20;100.00;101222.97;5034760;28;20024;-64
2023/09/23 08:57:19;;;;;;;8.98;6.22;;;;;;;14.14;100.00;101231.44;5055344;28;20033;-63
2023/09/23 08:59:45;;;;;;;9.57;6.30;;;;;;;14.14;100.00;101231.44;5060364;28;20487;-63
2023/09/23 09:02:21;;;;;;;10.25;6.10;;;;;;;14.14;100.00;101234.97;5038308;28;20033;-63
2023/09/23 09:04:46;;;;;;;6.82;5.70;;;;;;;14.12;100.00;101236.91;5068070;28;20032;-63
2023/09/23 09:07:12;;;;;;;9.85;6.20;;;;;;;14.10;100.00;101233.47;5056002;28;20416;-63
2023/09/23 09:09:37;;;;;;;8.57;6.55;;;;;;;14.09;100.00;101239.81;5031220;28;20028;-63
2023/09/23 09:12:05;;;;;;;8.32;5.35;;;;;;;14.29;100.00;101231.19;5065915;28;20480;-63
2023/09/23 09:14:32;;;;;;;7.82;5.57;;;;;;;14.61;100.00;101229.81;5070590;28;20487;-63
2023/09/23 09:16:57;;;;;;;10.27;5.82;;;;;;;14.68;100.00;101231.09;5069963;28;20376;-63
2023/09/23 09:19:23;;;;;;;10.65;5.53;;;;;;;14.76;98.24;101247.41;5062231;28;20047;-64
2023/09/23 09:21:50;;;;;;;9.32;5.35;;;;;;;14.76;97.39;101250.97;5051382;28;20029;-63
2023/09/23 09:24:16;;;;;;;8.57;5.20;;;;;;;14.64;97.46;101265.25;5020000;28;20029;-63
2023/09/23 09:26:44;;;;;;;9.32;4.97;;;;;;;14.54;97.91;101262.41;5052723;28;20036;-63
2023/09/23 09:29:10;;;;;;;11.45;5.03;;;;;;;14.39;98.98;101263.50;5064885;28;20055;-63
2023/09/23 09:31:38;;;;;;;8.13;4.72;;;;;;;14.44;100.00;101269.38;5056674;28;20454;-63
2023/09/23 09:34:11;;;;;;;8.75;5.03;;;;;;;14.43;99.44;101256.09;5040604;28;20093;-63
2023/09/23 09:36:38;;;;;;;10.55;5.43;;;;;;;14.43;99.72;101264.97;5050001;28;20024;-63
2023/09/23 09:39:10;;;;;;;9.20;4.78;;;;;;;14.31;98.14;101257.81;5056967;28;20093;-62
2023/09/23 09:41:42;;;;;;;10.13;5.32;;;;;;;14.35;98.36;101287.91;5053570;28;20023;-63
2023/09/23 09:44:08;;;;;;;8.57;4.57;;;;;;;14.34;97.49;101275.50;5061601;28;20037;-63
2023/09/23 09:46:34;;;;;;;7.38;4.75;;;;;;;14.30;99.37;101286.41;5038420;28;20025;-63
2023/09/23 09:49:00;;;;;;;7.88;5.28;;;;;;;14.35;98.00;101286.06;5051539;28;20368;-63
2023/09/23 09:51:29;;;;;;;7.63;5.22;;;;;;;14.24;99.05;101286.84;5056337;28;20512;-63
2023/09/23 09:53:55;;;;;;;11.23;5.47;;;;;;;14.32;99.34;101286.28;5048347;28;20028;-63
2023/09/23 09:56:21;;;;;;;8.77;5.80;;;;;;;14.36;98.18;101285.13;5048724;28;20057;-63
2023/09/23 09:58:48;;;;;;;11.60;6.32;;;;;;;14.39;99.07;101292.94;5064017;28;20020;-63
2023/09/23 10:01:13;;;;;;;10.10;5.10;;;;;;;14.32;97.83;101281.81;5055551;28;20029;-63
2023/09/23 10:03:51;;;;;;;8.60;5.30;;;;;;;14.39;98.96;101287.56;5059151;28;20471;-63
2023/09/23 10:06:26;;;;;;;8.00;5.30;;;;;;;14.48;98.35;101296.75;5062825;28;20039;-63
2023/09/23 10:08:53;;;;;;;10.35;4.45;;;;;;;14.57;97.01;101290.78;5044440;28;20028;-63
2023/09/23 10:11:31;;;;;;;8.30;4.95;;;;;;;14.54;99.40;101281.13;5064937;28;20020;-63
2023/09/23 10:13:58;;;;;;;8.57;5.35;;;;;;;14.75;96.73;101299.28;5050470;28;20115;-63
2023/09/23 10:16:27;;;;;;;9.88;5.57;;;;;;;14.83;96.27;101304.09;5060575;28;20025;-63
2023/09/23 10:18:57;;;;;;;8.32;5.18;;;;;;;14.94;95.18;101304.13;5054885;28;20033;-63
2023/09/23 10:21:24;;;;;;;9.25;4.72;;;;;;;15.01;95.79;101292.00;5056008;28;20029;-63
2023/09/23 10:23:51;;;;;;;9.95;5.50;;;;;;;15.12;96.10;101300.09;5082265;28;20036;-62
2023/09/23 10:26:18;;;;;;;12.70;4.95;;;;;;;15.04;94.02;101302.47;5036258;28;20025;-62
2023/09/23 10:29:00;;;;;;;9.43;5.68;;;;;;;15.00;95.49;101314.41;5055990;28;20136;-62
2023/09/23 10:31:27;;;;;;;10.70;5.60;;;;;;;14.87;95.49;101319.78;5052254;28;20495;-62
2023/09/23 10:33:53;;;;;;;9.20;5.30;;;;;;;14.91;95.21;101317.75;5052135;28;20116;-62
2023/09/23 10:36:20;;;;;;;9.20;5.13;;;;;;;14.79;96.16;101308.78;5046338;28;20107;-62
2023/09/23 10:38:49;;;;;;;9.75;5.00;;;;;;;14.73;96.19;101307.41;5035113;28;20040;-63
2023/09/23 10:41:14;;;;;;;12.35;5.15;;;;;;;14.74;95.26;101310.97;5053778;28;20024;-63
2023/09/23 10:43:39;;;;;;;14.25;4.90;;;;;;;14.79;93.32;101322.16;5058186;28;20040;-62
2023/09/23 10:46:05;;;;;;;10.40;5.35;;;;;;;14.75;94.68;101332.25;5050352;28;20028;-62
2023/09/23 10:48:32;;;;;;;10.82;5.50;;;;;;;14.70;96.52;101333.56;5037043;28;20049;-63
2023/09/23 10:50:58;;;;;;;9.00;4.70;;;;;;;14.76;94.90;101336.66;5063403;28;20037;-62
2023/09/23 10:53:28;;;;;;;9.77;5.05;;;;;;;14.73;94.46;101334.19;5045952;28;20112;-63
2023/09/23 10:55:55;;;;;;;9.38;5.60;;;;;;;14.83;95.83;101344.25;5048370;28;20044;-63
2023/09/23 10:58:21;;;;;;;8.50;5.53;;;;;;;14.82;94.71;101348.72;5050964;28;20107;-62
2023/09/23 11:00:46;;;;;;;7.45;4.93;;;;;;;14.81;95.87;101344.34;5052178;28;20103;-63
2023/09/23 11:03:17;;;;;;;5.88;5.05;;;;;;;14.84;97.21;101349.47;5051907;28;20040;-63
2023/09/23 11:05:44;;;;;;;7.28;4.78;;;;;;;14.96;97.37;101361.13;5051878;28;20364;-63
2023/09/23 11:08:11;;;;;;;7.47;4.82;;;;;;;15.08;95.19;101359.34;5043320;28;20025;-62
2023/09/23 11:10:38;;;;;;;9.90;4.63;;;;;;;15.43;93.92;101346.84;5055645;28;20029;-62